sensor_id;sensor_type;location;lat;lon;timestamp;P1;durP1;ratioP1;P2;durP2;ratioP2
17177;SDS011;8704;52.006;4.374;2023-03-03T00:01:27;30.98;;;27.95;;
17177;SDS011;8704;52.006;4.374;2023-03-03T00:03:57;28.90;;;26.02;;
17177;SDS011;8704;52.006;4.374;2023-03-03T00:06:25;32.78;;;29.48;;
17177;SDS011;8704;52.006;4.374;2023-03-03T00:08:55;32.85;;;29.40;;
17177;SDS011;8704;52.006;4.374;2023-03-03T00:11:23;34.60;;;30.95;;
17177;SDS011;8704;52.006;4.374;2023-03-03T00:13:52;33.03;;;29.63;;
17177;SDS011;8704;52.006;4.374;2023-03-03T00:16:22;34.53;;;30.83;;
17177;SDS011;8704;52.006;4.374;2023-03-03T00:18:52;37.22;;;33.67;;
17177;SDS011;8704;52.006;4.374;2023-03-03T00:21:26;35.78;;;32.08;;
17177;SDS011;8704;52.006;4.374;2023-03-03T00:24:14;35.25;;;31.45;;
17177;SDS011;8704;52.006;4.374;2023-03-03T00:26:45;34.55;;;30.67;;
17177;SDS011;8704;52.006;4.374;2023-03-03T00:34:53;33.83;;;30.08;;
17177;SDS011;8704;52.006;4.374;2023-03-03T00:37:26;35.28;;;31.83;;
17177;SDS011;8704;52.006;4.374;2023-03-03T00:40:13;36.70;;;32.78;;
17177;SDS011;8704;52.006;4.374;2023-03-03T00:42:48;36.72;;;32.88;;
17177;SDS011;8704;52.006;4.374;2023-03-03T00:45:28;38.83;;;34.70;;
17177;SDS011;8704;52.006;4.374;2023-03-03T00:47:58;39.28;;;35.45;;
17177;SDS011;8704;52.006;4.374;2023-03-03T00:50:45;40.15;;;36.33;;
17177;SDS011;8704;52.006;4.374;2023-03-03T00:53:16;39.70;;;36.03;;
17177;SDS011;8704;52.006;4.374;2023-03-03T00:55:45;43.47;;;39.20;;
17177;SDS011;8704;52.006;4.374;2023-03-03T00:58:15;43.88;;;39.72;;
17177;SDS011;8704;52.006;4.374;2023-03-03T01:00:46;43.92;;;39.85;;
17177;SDS011;8704;52.006;4.374;2023-03-03T01:03:15;39.55;;;35.95;;
17177;SDS011;8704;52.006;4.374;2023-03-03T01:05:45;40.92;;;37.13;;
17177;SDS011;8704;52.006;4.374;2023-03-03T01:08:13;40.47;;;36.47;;
17177;SDS011;8704;52.006;4.374;2023-03-03T01:10:45;43.08;;;39.30;;
17177;SDS011;8704;52.006;4.374;2023-03-03T01:13:16;45.03;;;41.33;;
17177;SDS011;8704;52.006;4.374;2023-03-03T01:15:45;46.67;;;42.72;;
17177;SDS011;8704;52.006;4.374;2023-03-03T01:18:13;43.45;;;40.00;;
17177;SDS011;8704;52.006;4.374;2023-03-03T01:20:41;43.63;;;40.10;;
17177;SDS011;8704;52.006;4.374;2023-03-03T01:23:09;44.60;;;41.05;;
17177;SDS011;8704;52.006;4.374;2023-03-03T01:25:38;43.50;;;40.17;;
17177;SDS011;8704;52.006;4.374;2023-03-03T01:28:07;44.17;;;40.63;;
17177;SDS011;8704;52.006;4.374;2023-03-03T01:30:36;41.40;;;38.30;;
17177;SDS011;8704;52.006;4.374;2023-03-03T01:33:04;40.65;;;37.25;;
17177;SDS011;8704;52.006;4.374;2023-03-03T01:35:32;41.17;;;38.03;;
17177;SDS011;8704;52.006;4.374;2023-03-03T01:38:02;44.30;;;40.83;;
17177;SDS011;8704;52.006;4.374;2023-03-03T01:40:30;48.97;;;45.00;;
17177;SDS011;8704;52.006;4.374;2023-03-03T01:42:58;55.28;;;51.55;;
17177;SDS011;8704;52.006;4.374;2023-03-03T01:45:29;50.45;;;47.03;;
17177;SDS011;8704;52.006;4.374;2023-03-03T01:47:59;48.25;;;44.95;;
17177;SDS011;8704;52.006;4.374;2023-03-03T01:53:03;51.00;;;46.92;;
17177;SDS011;8704;52.006;4.374;2023-03-03T01:55:33;54.85;;;51.13;;
17177;SDS011;8704;52.006;4.374;2023-03-03T01:58:06;50.20;;;46.60;;
17177;SDS011;8704;52.006;4.374;2023-03-03T02:00:40;49.17;;;45.72;;
17177;SDS011;8704;52.006;4.374;2023-03-03T02:03:11;52.47;;;49.13;;
17177;SDS011;8704;52.006;4.374;2023-03-03T02:05:39;48.65;;;45.15;;
17177;SDS011;8704;52.006;4.374;2023-03-03T02:08:09;51.25;;;47.50;;
17177;SDS011;8704;52.006;4.374;2023-03-03T02:10:42;50.42;;;46.63;;
17177;SDS011;8704;52.006;4.374;2023-03-03T02:13:12;48.95;;;45.58;;
17177;SDS011;8704;52.006;4.374;2023-03-03T02:15:42;49.72;;;46.58;;
17177;SDS011;8704;52.006;4.374;2023-03-03T02:18:10;48.28;;;45.13;;
17177;SDS011;8704;52.006;4.374;2023-03-03T02:20:43;49.13;;;45.63;;
17177;SDS011;8704;52.006;4.374;2023-03-03T02:23:17;48.58;;;45.17;;
17177;SDS011;8704;52.006;4.374;2023-03-03T02:25:52;48.38;;;44.97;;
17177;SDS011;8704;52.006;4.374;2023-03-03T02:28:36;46.10;;;43.13;;
17177;SDS011;8704;52.006;4.374;2023-03-03T02:31:06;46.38;;;43.38;;
17177;SDS011;8704;52.006;4.374;2023-03-03T02:33:38;44.53;;;41.15;;
17177;SDS011;8704;52.006;4.374;2023-03-03T02:36:09;46.83;;;43.45;;
17177;SDS011;8704;52.006;4.374;2023-03-03T02:41:12;47.60;;;44.38;;
17177;SDS011;8704;52.006;4.374;2023-03-03T02:43:49;50.45;;;46.80;;
17177;SDS011;8704;52.006;4.374;2023-03-03T02:46:23;51.25;;;47.78;;
17177;SDS011;8704;52.006;4.374;2023-03-03T02:48:51;52.97;;;49.55;;
17177;SDS011;8704;52.006;4.374;2023-03-03T02:51:19;52.22;;;48.72;;
17177;SDS011;8704;52.006;4.374;2023-03-03T02:53:47;48.30;;;45.10;;
17177;SDS011;8704;52.006;4.374;2023-03-03T02:56:17;50.95;;;47.78;;
17177;SDS011;8704;52.006;4.374;2023-03-03T02:58:45;51.53;;;48.15;;
17177;SDS011;8704;52.006;4.374;2023-03-03T03:01:13;55.13;;;51.33;;
17177;SDS011;8704;52.006;4.374;2023-03-03T03:03:41;52.72;;;49.10;;
17177;SDS011;8704;52.006;4.374;2023-03-03T03:06:09;48.05;;;44.80;;
17177;SDS011;8704;52.006;4.374;2023-03-03T03:08:37;49.53;;;46.00;;
17177;SDS011;8704;52.006;4.374;2023-03-03T03:11:05;44.65;;;41.55;;
17177;SDS011;8704;52.006;4.374;2023-03-03T03:13:35;42.65;;;39.70;;
17177;SDS011;8704;52.006;4.374;2023-03-03T03:16:03;42.50;;;39.42;;
17177;SDS011;8704;52.006;4.374;2023-03-03T03:18:31;44.38;;;41.25;;
17177;SDS011;8704;52.006;4.374;2023-03-03T03:21:04;44.63;;;41.63;;
17177;SDS011;8704;52.006;4.374;2023-03-03T03:23:34;43.60;;;40.35;;
17177;SDS011;8704;52.006;4.374;2023-03-03T03:26:02;43.88;;;40.78;;
17177;SDS011;8704;52.006;4.374;2023-03-03T03:28:31;44.33;;;41.53;;
17177;SDS011;8704;52.006;4.374;2023-03-03T03:31:01;45.67;;;42.58;;
17177;SDS011;8704;52.006;4.374;2023-03-03T03:33:29;46.75;;;43.72;;
17177;SDS011;8704;52.006;4.374;2023-03-03T03:35:58;50.72;;;47.30;;
17177;SDS011;8704;52.006;4.374;2023-03-03T03:38:26;52.97;;;49.55;;
17177;SDS011;8704;52.006;4.374;2023-03-03T03:40:56;55.38;;;51.95;;
17177;SDS011;8704;52.006;4.374;2023-03-03T03:43:25;55.10;;;51.58;;
17177;SDS011;8704;52.006;4.374;2023-03-03T03:45:53;60.03;;;56.47;;
17177;SDS011;8704;52.006;4.374;2023-03-03T03:48:23;61.50;;;57.40;;
17177;SDS011;8704;52.006;4.374;2023-03-03T03:50:51;57.33;;;53.55;;
17177;SDS011;8704;52.006;4.374;2023-03-03T03:53:19;54.83;;;51.40;;
17177;SDS011;8704;52.006;4.374;2023-03-03T03:55:47;55.97;;;52.65;;
17177;SDS011;8704;52.006;4.374;2023-03-03T03:58:15;64.22;;;60.13;;
17177;SDS011;8704;52.006;4.374;2023-03-03T04:00:44;66.90;;;62.90;;
17177;SDS011;8704;52.006;4.374;2023-03-03T04:03:13;53.38;;;50.10;;
17177;SDS011;8704;52.006;4.374;2023-03-03T04:05:42;63.22;;;58.88;;
17177;SDS011;8704;52.006;4.374;2023-03-03T04:08:11;63.50;;;59.58;;
17177;SDS011;8704;52.006;4.374;2023-03-03T04:10:40;70.78;;;66.35;;
17177;SDS011;8704;52.006;4.374;2023-03-03T04:13:08;71.75;;;67.57;;
17177;SDS011;8704;52.006;4.374;2023-03-03T04:15:36;67.30;;;62.97;;
17177;SDS011;8704;52.006;4.374;2023-03-03T04:18:04;64.80;;;60.75;;
17177;SDS011;8704;52.006;4.374;2023-03-03T04:20:32;62.17;;;58.08;;
17177;SDS011;8704;52.006;4.374;2023-03-03T04:23:02;58.50;;;54.83;;
17177;SDS011;8704;52.006;4.374;2023-03-03T04:25:30;57.40;;;53.58;;
17177;SDS011;8704;52.006;4.374;2023-03-03T04:27:58;57.92;;;53.88;;
17177;SDS011;8704;52.006;4.374;2023-03-03T04:30:26;73.05;;;67.32;;
17177;SDS011;8704;52.006;4.374;2023-03-03T04:32:54;77.05;;;71.68;;
17177;SDS011;8704;52.006;4.374;2023-03-03T04:35:22;77.88;;;70.15;;
17177;SDS011;8704;52.006;4.374;2023-03-03T04:37:50;78.18;;;72.53;;
17177;SDS011;8704;52.006;4.374;2023-03-03T04:40:19;75.93;;;68.45;;
17177;SDS011;8704;52.006;4.374;2023-03-03T04:42:47;133.70;;;72.70;;
17177;SDS011;8704;52.006;4.374;2023-03-03T04:45:15;150.50;;;83.57;;
17177;SDS011;8704;52.006;4.374;2023-03-03T04:47:44;111.93;;;87.43;;
17177;SDS011;8704;52.006;4.374;2023-03-03T04:50:12;104.25;;;94.03;;
17177;SDS011;8704;52.006;4.374;2023-03-03T04:52:39;93.75;;;85.20;;
17177;SDS011;8704;52.006;4.374;2023-03-03T04:55:08;111.35;;;102.10;;
17177;SDS011;8704;52.006;4.374;2023-03-03T04:57:38;123.43;;;100.18;;
17177;SDS011;8704;52.006;4.374;2023-03-03T05:00:06;101.47;;;91.78;;
17177;SDS011;8704;52.006;4.374;2023-03-03T05:02:35;112.95;;;101.15;;
17177;SDS011;8704;52.006;4.374;2023-03-03T05:05:03;238.60;;;115.20;;
17177;SDS011;8704;52.006;4.374;2023-03-03T05:07:32;126.60;;;112.93;;
17177;SDS011;8704;52.006;4.374;2023-03-03T05:10:00;126.07;;;117.07;;
17177;SDS011;8704;52.006;4.374;2023-03-03T05:12:28;111.35;;;100.45;;
17177;SDS011;8704;52.006;4.374;2023-03-03T05:14:57;135.98;;;120.07;;
17177;SDS011;8704;52.006;4.374;2023-03-03T05:17:26;176.30;;;117.68;;
17177;SDS011;8704;52.006;4.374;2023-03-03T05:19:54;124.40;;;114.93;;
17177;SDS011;8704;52.006;4.374;2023-03-03T05:22:22;128.45;;;117.93;;
17177;SDS011;8704;52.006;4.374;2023-03-03T05:24:51;127.45;;;115.65;;
17177;SDS011;8704;52.006;4.374;2023-03-03T05:27:19;121.05;;;112.13;;
17177;SDS011;8704;52.006;4.374;2023-03-03T05:29:47;194.27;;;114.47;;
17177;SDS011;8704;52.006;4.374;2023-03-03T05:32:17;122.28;;;112.82;;
17177;SDS011;8704;52.006;4.374;2023-03-03T05:34:45;123.35;;;112.63;;
17177;SDS011;8704;52.006;4.374;2023-03-03T05:37:13;227.95;;;115.60;;
17177;SDS011;8704;52.006;4.374;2023-03-03T05:39:41;125.07;;;112.05;;
17177;SDS011;8704;52.006;4.374;2023-03-03T05:42:10;143.75;;;113.47;;
17177;SDS011;8704;52.006;4.374;2023-03-03T05:44:39;162.35;;;111.25;;
17177;SDS011;8704;52.006;4.374;2023-03-03T05:47:07;122.03;;;110.45;;
17177;SDS011;8704;52.006;4.374;2023-03-03T05:49:36;111.30;;;103.03;;
17177;SDS011;8704;52.006;4.374;2023-03-03T05:52:04;160.70;;;107.85;;
17177;SDS011;8704;52.006;4.374;2023-03-03T05:54:34;121.43;;;108.47;;
17177;SDS011;8704;52.006;4.374;2023-03-03T05:57:02;125.72;;;110.05;;
17177;SDS011;8704;52.006;4.374;2023-03-03T05:59:30;125.07;;;106.20;;
17177;SDS011;8704;52.006;4.374;2023-03-03T06:01:58;113.32;;;103.25;;
17177;SDS011;8704;52.006;4.374;2023-03-03T06:04:26;137.80;;;105.13;;
17177;SDS011;8704;52.006;4.374;2023-03-03T06:06:56;116.25;;;105.85;;
17177;SDS011;8704;52.006;4.374;2023-03-03T06:09:24;108.97;;;100.38;;
17177;SDS011;8704;52.006;4.374;2023-03-03T06:11:52;116.40;;;104.60;;
17177;SDS011;8704;52.006;4.374;2023-03-03T06:14:21;99.82;;;88.97;;
17177;SDS011;8704;52.006;4.374;2023-03-03T06:16:52;180.90;;;104.82;;
17177;SDS011;8704;52.006;4.374;2023-03-03T06:19:20;115.50;;;106.10;;
17177;SDS011;8704;52.006;4.374;2023-03-03T06:21:48;137.38;;;102.05;;
17177;SDS011;8704;52.006;4.374;2023-03-03T06:24:17;96.07;;;88.00;;
17177;SDS011;8704;52.006;4.374;2023-03-03T06:26:45;99.13;;;91.97;;
17177;SDS011;8704;52.006;4.374;2023-03-03T06:29:13;141.48;;;103.38;;
17177;SDS011;8704;52.006;4.374;2023-03-03T06:31:41;111.20;;;100.68;;
17177;SDS011;8704;52.006;4.374;2023-03-03T06:34:10;107.30;;;94.10;;
17177;SDS011;8704;52.006;4.374;2023-03-03T06:36:38;128.18;;;99.80;;
17177;SDS011;8704;52.006;4.374;2023-03-03T06:39:06;107.78;;;97.90;;
17177;SDS011;8704;52.006;4.374;2023-03-03T06:41:35;113.65;;;103.18;;
17177;SDS011;8704;52.006;4.374;2023-03-03T06:44:03;102.25;;;94.50;;
17177;SDS011;8704;52.006;4.374;2023-03-03T06:46:31;102.15;;;93.95;;
17177;SDS011;8704;52.006;4.374;2023-03-03T06:48:59;91.00;;;81.50;;
17177;SDS011;8704;52.006;4.374;2023-03-03T06:51:29;101.13;;;89.88;;
17177;SDS011;8704;52.006;4.374;2023-03-03T06:54:00;91.60;;;82.82;;
17177;SDS011;8704;52.006;4.374;2023-03-03T06:56:33;144.90;;;89.28;;
17177;SDS011;8704;52.006;4.374;2023-03-03T06:59:05;132.45;;;87.78;;
17177;SDS011;8704;52.006;4.374;2023-03-03T07:01:38;145.32;;;89.45;;
17177;SDS011;8704;52.006;4.374;2023-03-03T07:04:13;114.38;;;87.32;;
17177;SDS011;8704;52.006;4.374;2023-03-03T07:06:45;112.38;;;90.43;;
17177;SDS011;8704;52.006;4.374;2023-03-03T07:09:14;89.90;;;82.32;;
17177;SDS011;8704;52.006;4.374;2023-03-03T07:11:51;99.47;;;84.00;;
17177;SDS011;8704;52.006;4.374;2023-03-03T07:14:20;90.57;;;82.30;;
17177;SDS011;8704;52.006;4.374;2023-03-03T07:16:50;86.65;;;78.22;;
17177;SDS011;8704;52.006;4.374;2023-03-03T07:19:26;80.53;;;73.78;;
17177;SDS011;8704;52.006;4.374;2023-03-03T07:21:58;79.55;;;71.43;;
17177;SDS011;8704;52.006;4.374;2023-03-03T07:24:37;76.88;;;69.68;;
17177;SDS011;8704;52.006;4.374;2023-03-03T07:27:09;79.32;;;71.13;;
17177;SDS011;8704;52.006;4.374;2023-03-03T07:29:40;78.60;;;72.22;;
17177;SDS011;8704;52.006;4.374;2023-03-03T07:32:16;87.30;;;72.97;;
17177;SDS011;8704;52.006;4.374;2023-03-03T07:34:53;78.20;;;70.60;;
17177;SDS011;8704;52.006;4.374;2023-03-03T07:37:29;101.97;;;66.43;;
17177;SDS011;8704;52.006;4.374;2023-03-03T07:40:01;81.03;;;62.35;;
17177;SDS011;8704;52.006;4.374;2023-03-03T07:42:49;68.43;;;62.58;;
17177;SDS011;8704;52.006;4.374;2023-03-03T07:45:20;85.35;;;62.97;;
17177;SDS011;8704;52.006;4.374;2023-03-03T07:47:53;61.47;;;55.45;;
17177;SDS011;8704;52.006;4.374;2023-03-03T07:50:27;81.25;;;61.90;;
17177;SDS011;8704;52.006;4.374;2023-03-03T07:52:56;63.95;;;55.75;;
17177;SDS011;8704;52.006;4.374;2023-03-03T07:55:27;65.53;;;59.85;;
17177;SDS011;8704;52.006;4.374;2023-03-03T07:58:19;73.13;;;62.67;;
17177;SDS011;8704;52.006;4.374;2023-03-03T08:03:46;63.60;;;57.85;;
17177;SDS011;8704;52.006;4.374;2023-03-03T08:06:26;55.10;;;49.75;;
17177;SDS011;8704;52.006;4.374;2023-03-03T08:09:18;63.38;;;57.40;;
17177;SDS011;8704;52.006;4.374;2023-03-03T08:11:56;61.88;;;57.33;;
17177;SDS011;8704;52.006;4.374;2023-03-03T08:14:30;65.35;;;60.28;;
17177;SDS011;8704;52.006;4.374;2023-03-03T08:17:00;64.53;;;59.33;;
17177;SDS011;8704;52.006;4.374;2023-03-03T08:19:33;65.00;;;60.20;;
17177;SDS011;8704;52.006;4.374;2023-03-03T08:22:02;66.88;;;61.50;;
17177;SDS011;8704;52.006;4.374;2023-03-03T08:24:38;60.50;;;55.63;;
17177;SDS011;8704;52.006;4.374;2023-03-03T08:27:06;62.65;;;57.60;;
17177;SDS011;8704;52.006;4.374;2023-03-03T08:29:35;61.78;;;56.65;;
17177;SDS011;8704;52.006;4.374;2023-03-03T08:32:04;55.55;;;50.88;;
17177;SDS011;8704;52.006;4.374;2023-03-03T08:34:32;55.08;;;50.47;;
17177;SDS011;8704;52.006;4.374;2023-03-03T08:37:00;52.45;;;48.05;;
17177;SDS011;8704;52.006;4.374;2023-03-03T08:39:28;60.33;;;55.75;;
17177;SDS011;8704;52.006;4.374;2023-03-03T08:41:56;51.03;;;46.78;;
17177;SDS011;8704;52.006;4.374;2023-03-03T08:44:24;53.88;;;49.67;;
17177;SDS011;8704;52.006;4.374;2023-03-03T08:46:53;54.85;;;50.38;;
17177;SDS011;8704;52.006;4.374;2023-03-03T08:49:21;57.47;;;52.95;;
17177;SDS011;8704;52.006;4.374;2023-03-03T08:51:49;49.40;;;45.42;;
17177;SDS011;8704;52.006;4.374;2023-03-03T08:54:19;53.20;;;49.15;;
17177;SDS011;8704;52.006;4.374;2023-03-03T08:56:47;44.65;;;41.10;;
17177;SDS011;8704;52.006;4.374;2023-03-03T08:59:15;43.80;;;40.17;;
17177;SDS011;8704;52.006;4.374;2023-03-03T09:01:44;41.03;;;37.55;;
17177;SDS011;8704;52.006;4.374;2023-03-03T09:04:13;38.28;;;34.85;;
17177;SDS011;8704;52.006;4.374;2023-03-03T09:06:42;34.72;;;31.60;;
17177;SDS011;8704;52.006;4.374;2023-03-03T09:09:09;34.45;;;31.08;;
17177;SDS011;8704;52.006;4.374;2023-03-03T09:11:37;30.45;;;27.52;;
17177;SDS011;8704;52.006;4.374;2023-03-03T09:14:06;31.58;;;28.27;;
17177;SDS011;8704;52.006;4.374;2023-03-03T09:16:38;29.23;;;26.52;;
17177;SDS011;8704;52.006;4.374;2023-03-03T09:19:20;30.73;;;27.80;;
17177;SDS011;8704;52.006;4.374;2023-03-03T09:21:52;25.13;;;22.55;;
17177;SDS011;8704;52.006;4.374;2023-03-03T09:24:23;24.02;;;21.60;;
17177;SDS011;8704;52.006;4.374;2023-03-03T09:26:53;22.37;;;20.10;;
17177;SDS011;8704;52.006;4.374;2023-03-03T09:29:24;21.88;;;19.58;;
17177;SDS011;8704;52.006;4.374;2023-03-03T09:31:54;20.42;;;17.70;;
17177;SDS011;8704;52.006;4.374;2023-03-03T09:34:26;20.05;;;18.05;;
17177;SDS011;8704;52.006;4.374;2023-03-03T09:37:13;21.00;;;18.58;;
17177;SDS011;8704;52.006;4.374;2023-03-03T09:39:45;21.85;;;19.50;;
17177;SDS011;8704;52.006;4.374;2023-03-03T09:42:19;23.23;;;20.80;;
17177;SDS011;8704;52.006;4.374;2023-03-03T09:45:16;18.70;;;16.80;;
17177;SDS011;8704;52.006;4.374;2023-03-03T09:47:59;17.38;;;15.68;;
17177;SDS011;8704;52.006;4.374;2023-03-03T09:51:04;15.73;;;14.05;;
17177;SDS011;8704;52.006;4.374;2023-03-03T09:53:59;15.70;;;13.45;;
17177;SDS011;8704;52.006;4.374;2023-03-03T09:56:40;20.08;;;11.95;;
17177;SDS011;8704;52.006;4.374;2023-03-03T09:59:23;13.75;;;11.75;;
17177;SDS011;8704;52.006;4.374;2023-03-03T10:02:05;16.40;;;12.10;;
17177;SDS011;8704;52.006;4.374;2023-03-03T10:04:54;16.20;;;12.52;;
17177;SDS011;8704;52.006;4.374;2023-03-03T10:07:43;15.93;;;13.65;;
17177;SDS011;8704;52.006;4.374;2023-03-03T10:10:37;15.27;;;13.20;;
17177;SDS011;8704;52.006;4.374;2023-03-03T10:13:15;13.63;;;12.20;;
17177;SDS011;8704;52.006;4.374;2023-03-03T10:15:55;14.07;;;12.52;;
17177;SDS011;8704;52.006;4.374;2023-03-03T10:18:44;18.48;;;12.13;;
17177;SDS011;8704;52.006;4.374;2023-03-03T10:21:20;13.35;;;11.80;;
17177;SDS011;8704;52.006;4.374;2023-03-03T10:23:55;14.80;;;11.52;;
17177;SDS011;8704;52.006;4.374;2023-03-03T10:26:30;14.05;;;10.73;;
17177;SDS011;8704;52.006;4.374;2023-03-03T10:29:33;10.95;;;9.30;;
17177;SDS011;8704;52.006;4.374;2023-03-03T10:32:17;13.70;;;8.93;;
17177;SDS011;8704;52.006;4.374;2023-03-03T10:41:01;9.60;;;7.35;;
17177;SDS011;8704;52.006;4.374;2023-03-03T10:43:54;7.40;;;6.20;;
17177;SDS011;8704;52.006;4.374;2023-03-03T10:46:43;9.88;;;7.03;;
17177;SDS011;8704;52.006;4.374;2023-03-03T10:49:26;9.85;;;6.75;;
17177;SDS011;8704;52.006;4.374;2023-03-03T10:52:08;9.00;;;6.82;;
17177;SDS011;8704;52.006;4.374;2023-03-03T10:54:50;10.13;;;6.30;;
17177;SDS011;8704;52.006;4.374;2023-03-03T10:57:33;9.45;;;6.20;;
17177;SDS011;8704;52.006;4.374;2023-03-03T11:00:14;11.43;;;6.30;;
17177;SDS011;8704;52.006;4.374;2023-03-03T11:02:52;9.48;;;6.88;;
17177;SDS011;8704;52.006;4.374;2023-03-03T11:05:43;8.43;;;6.07;;
17177;SDS011;8704;52.006;4.374;2023-03-03T11:08:18;9.70;;;5.38;;
17177;SDS011;8704;52.006;4.374;2023-03-03T11:10:53;8.27;;;5.95;;
17177;SDS011;8704;52.006;4.374;2023-03-03T11:13:32;8.48;;;5.25;;
17177;SDS011;8704;52.006;4.374;2023-03-03T11:16:13;7.30;;;4.75;;
17177;SDS011;8704;52.006;4.374;2023-03-03T11:18:49;5.63;;;4.57;;
17177;SDS011;8704;52.006;4.374;2023-03-03T11:21:28;7.10;;;4.43;;
17177;SDS011;8704;52.006;4.374;2023-03-03T11:24:04;6.00;;;3.70;;
17177;SDS011;8704;52.006;4.374;2023-03-03T11:26:57;5.65;;;3.50;;
17177;SDS011;8704;52.006;4.374;2023-03-03T11:29:45;8.75;;;4.43;;
17177;SDS011;8704;52.006;4.374;2023-03-03T11:32:23;6.13;;;3.67;;
17177;SDS011;8704;52.006;4.374;2023-03-03T11:35:03;6.80;;;3.80;;
17177;SDS011;8704;52.006;4.374;2023-03-03T11:37:45;5.88;;;3.60;;
17177;SDS011;8704;52.006;4.374;2023-03-03T11:40:23;5.85;;;3.50;;
17177;SDS011;8704;52.006;4.374;2023-03-03T11:42:57;6.90;;;3.33;;
17177;SDS011;8704;52.006;4.374;2023-03-03T11:45:36;5.13;;;2.97;;
17177;SDS011;8704;52.006;4.374;2023-03-03T11:48:07;4.68;;;2.92;;
17177;SDS011;8704;52.006;4.374;2023-03-03T11:50:42;4.88;;;2.95;;
17177;SDS011;8704;52.006;4.374;2023-03-03T11:53:24;5.85;;;2.50;;
17177;SDS011;8704;52.006;4.374;2023-03-03T11:55:59;5.03;;;2.20;;
17177;SDS011;8704;52.006;4.374;2023-03-03T11:58:35;8.63;;;2.63;;
17177;SDS011;8704;52.006;4.374;2023-03-03T12:01:12;5.22;;;2.70;;
17177;SDS011;8704;52.006;4.374;2023-03-03T12:03:47;4.72;;;2.72;;
17177;SDS011;8704;52.006;4.374;2023-03-03T12:06:22;5.55;;;2.00;;
17177;SDS011;8704;52.006;4.374;2023-03-03T12:11:51;5.15;;;2.25;;
17177;SDS011;8704;52.006;4.374;2023-03-03T12:17:14;4.93;;;2.38;;
17177;SDS011;8704;52.006;4.374;2023-03-03T12:20:05;5.78;;;2.50;;
17177;SDS011;8704;52.006;4.374;2023-03-03T12:22:37;7.38;;;2.70;;
17177;SDS011;8704;52.006;4.374;2023-03-03T12:25:22;3.88;;;2.58;;
17177;SDS011;8704;52.006;4.374;2023-03-03T12:27:58;6.37;;;3.00;;
17177;SDS011;8704;52.006;4.374;2023-03-03T12:30:55;6.93;;;2.92;;
17177;SDS011;8704;52.006;4.374;2023-03-03T12:33:51;4.88;;;2.70;;
17177;SDS011;8704;52.006;4.374;2023-03-03T12:36:32;5.13;;;2.90;;
17177;SDS011;8704;52.006;4.374;2023-03-03T12:39:12;6.15;;;2.13;;
17177;SDS011;8704;52.006;4.374;2023-03-03T12:42:00;6.50;;;2.20;;
17177;SDS011;8704;52.006;4.374;2023-03-03T12:44:35;5.95;;;1.90;;
17177;SDS011;8704;52.006;4.374;2023-03-03T12:47:09;8.43;;;1.98;;
17177;SDS011;8704;52.006;4.374;2023-03-03T12:49:51;5.05;;;1.65;;
17177;SDS011;8704;52.006;4.374;2023-03-03T12:52:36;5.20;;;1.65;;
17177;SDS011;8704;52.006;4.374;2023-03-03T12:55:14;5.80;;;1.63;;
17177;SDS011;8704;52.006;4.374;2023-03-03T12:57:50;6.88;;;1.60;;
17177;SDS011;8704;52.006;4.374;2023-03-03T13:00:29;4.45;;;1.50;;
17177;SDS011;8704;52.006;4.374;2023-03-03T13:03:12;4.15;;;1.20;;
17177;SDS011;8704;52.006;4.374;2023-03-03T13:05:59;6.70;;;1.60;;
17177;SDS011;8704;52.006;4.374;2023-03-03T13:08:39;3.15;;;1.40;;
17177;SDS011;8704;52.006;4.374;2023-03-03T13:14:22;4.85;;;1.45;;
17177;SDS011;8704;52.006;4.374;2023-03-03T13:17:00;3.55;;;1.23;;
17177;SDS011;8704;52.006;4.374;2023-03-03T13:19:36;5.18;;;1.60;;
17177;SDS011;8704;52.006;4.374;2023-03-03T13:22:11;5.13;;;1.40;;
17177;SDS011;8704;52.006;4.374;2023-03-03T13:24:47;4.78;;;1.58;;
17177;SDS011;8704;52.006;4.374;2023-03-03T13:27:24;4.68;;;1.40;;
17177;SDS011;8704;52.006;4.374;2023-03-03T13:29:59;4.72;;;1.38;;
17177;SDS011;8704;52.006;4.374;2023-03-03T13:32:31;6.22;;;1.58;;
17177;SDS011;8704;52.006;4.374;2023-03-03T13:35:08;3.88;;;1.27;;
17177;SDS011;8704;52.006;4.374;2023-03-03T13:37:48;3.33;;;1.30;;
17177;SDS011;8704;52.006;4.374;2023-03-03T13:40:21;4.40;;;1.20;;
17177;SDS011;8704;52.006;4.374;2023-03-03T13:42:53;4.45;;;1.58;;
17177;SDS011;8704;52.006;4.374;2023-03-03T13:45:29;5.13;;;1.45;;
17177;SDS011;8704;52.006;4.374;2023-03-03T13:48:06;5.00;;;1.40;;
17177;SDS011;8704;52.006;4.374;2023-03-03T13:50:42;3.85;;;1.38;;
17177;SDS011;8704;52.006;4.374;2023-03-03T13:53:24;5.38;;;1.40;;
17177;SDS011;8704;52.006;4.374;2023-03-03T13:56:04;3.75;;;1.27;;
17177;SDS011;8704;52.006;4.374;2023-03-03T13:58:45;2.85;;;1.27;;
17177;SDS011;8704;52.006;4.374;2023-03-03T14:01:22;4.00;;;1.23;;
17177;SDS011;8704;52.006;4.374;2023-03-03T14:03:58;4.60;;;1.30;;
17177;SDS011;8704;52.006;4.374;2023-03-03T14:06:32;4.18;;;1.27;;
17177;SDS011;8704;52.006;4.374;2023-03-03T14:09:17;4.15;;;1.38;;
17177;SDS011;8704;52.006;4.374;2023-03-03T14:12:03;6.03;;;1.60;;
17177;SDS011;8704;52.006;4.374;2023-03-03T14:14:42;5.35;;;1.42;;
17177;SDS011;8704;52.006;4.374;2023-03-03T14:17:16;2.60;;;1.30;;
17177;SDS011;8704;52.006;4.374;2023-03-03T14:19:55;5.93;;;1.40;;
17177;SDS011;8704;52.006;4.374;2023-03-03T14:22:32;6.03;;;1.55;;
17177;SDS011;8704;52.006;4.374;2023-03-03T14:25:09;4.05;;;2.00;;
17177;SDS011;8704;52.006;4.374;2023-03-03T14:30:28;3.72;;;1.98;;
17177;SDS011;8704;52.006;4.374;2023-03-03T14:32:59;6.15;;;2.20;;
17177;SDS011;8704;52.006;4.374;2023-03-03T14:35:42;4.75;;;2.13;;
17177;SDS011;8704;52.006;4.374;2023-03-03T14:38:15;6.13;;;2.33;;
17177;SDS011;8704;52.006;4.374;2023-03-03T14:40:46;4.70;;;2.20;;
17177;SDS011;8704;52.006;4.374;2023-03-03T14:43:19;5.85;;;2.30;;
17177;SDS011;8704;52.006;4.374;2023-03-03T14:45:50;4.65;;;2.25;;
17177;SDS011;8704;52.006;4.374;2023-03-03T14:48:20;5.30;;;1.67;;
17177;SDS011;8704;52.006;4.374;2023-03-03T14:50:50;5.35;;;2.00;;
17177;SDS011;8704;52.006;4.374;2023-03-03T14:53:20;4.60;;;1.67;;
17177;SDS011;8704;52.006;4.374;2023-03-03T14:59:14;3.70;;;1.40;;
17177;SDS011;8704;52.006;4.374;2023-03-03T15:01:45;4.53;;;1.90;;
17177;SDS011;8704;52.006;4.374;2023-03-03T15:04:22;3.10;;;1.40;;
17177;SDS011;8704;52.006;4.374;2023-03-03T15:06:52;3.80;;;1.70;;
17177;SDS011;8704;52.006;4.374;2023-03-03T15:09:26;5.95;;;1.65;;
17177;SDS011;8704;52.006;4.374;2023-03-03T15:11:59;4.50;;;1.70;;
17177;SDS011;8704;52.006;4.374;2023-03-03T15:14:30;3.85;;;1.40;;
17177;SDS011;8704;52.006;4.374;2023-03-03T15:20:01;4.00;;;1.77;;
17177;SDS011;8704;52.006;4.374;2023-03-03T15:22:42;4.47;;;1.83;;
17177;SDS011;8704;52.006;4.374;2023-03-03T15:25:17;3.97;;;1.98;;
17177;SDS011;8704;52.006;4.374;2023-03-03T15:28:12;6.22;;;2.55;;
17177;SDS011;8704;52.006;4.374;2023-03-03T15:30:52;3.80;;;2.10;;
17177;SDS011;8704;52.006;4.374;2023-03-03T15:33:27;4.13;;;1.70;;
17177;SDS011;8704;52.006;4.374;2023-03-03T15:36:03;4.18;;;1.80;;
17177;SDS011;8704;52.006;4.374;2023-03-03T15:38:45;4.45;;;2.08;;
17177;SDS011;8704;52.006;4.374;2023-03-03T15:41:24;3.78;;;1.52;;
17177;SDS011;8704;52.006;4.374;2023-03-03T15:44:02;6.32;;;1.63;;
17177;SDS011;8704;52.006;4.374;2023-03-03T15:46:42;5.05;;;1.95;;
17177;SDS011;8704;52.006;4.374;2023-03-03T15:49:32;4.18;;;1.50;;
17177;SDS011;8704;52.006;4.374;2023-03-03T15:52:15;8.02;;;1.98;;
17177;SDS011;8704;52.006;4.374;2023-03-03T15:54:59;5.65;;;1.98;;
17177;SDS011;8704;52.006;4.374;2023-03-03T15:57:43;6.00;;;2.00;;